sensor_id;sensor_type;location;lat;lon;timestamp;P1;durP1;ratioP1;P2;durP2;ratioP2
30970;SDS011;17651;52.262;10.498;2024-03-02T00:02:01;23.17;;;13.27;;
30970;SDS011;17651;52.262;10.498;2024-03-02T00:04:12;24.42;;;13.80;;
30970;SDS011;17651;52.262;10.498;2024-03-02T00:06:23;21.85;;;13.02;;
30970;SDS011;17651;52.262;10.498;2024-03-02T00:08:34;20.02;;;12.90;;
30970;SDS011;17651;52.262;10.498;2024-03-02T00:10:45;24.38;;;13.40;;
30970;SDS011;17651;52.262;10.498;2024-03-02T00:12:56;18.80;;;12.25;;
30970;SDS011;17651;52.262;10.498;2024-03-02T00:17:37;21.50;;;12.82;;
30970;SDS011;17651;52.262;10.498;2024-03-02T00:19:49;25.42;;;13.45;;
30970;SDS011;17651;52.262;10.498;2024-03-02T00:22:00;22.23;;;12.60;;
30970;SDS011;17651;52.262;10.498;2024-03-02T00:24:17;24.58;;;13.52;;
30970;SDS011;17651;52.262;10.498;2024-03-02T00:26:29;22.90;;;13.55;;
30970;SDS011;17651;52.262;10.498;2024-03-02T00:28:40;22.95;;;12.70;;
30970;SDS011;17651;52.262;10.498;2024-03-02T00:30:57;25.60;;;14.80;;
30970;SDS011;17651;52.262;10.498;2024-03-02T00:33:09;21.67;;;13.20;;
30970;SDS011;17651;52.262;10.498;2024-03-02T00:35:21;21.73;;;14.20;;
30970;SDS011;17651;52.262;10.498;2024-03-02T00:37:33;24.15;;;13.63;;
30970;SDS011;17651;52.262;10.498;2024-03-02T00:39:48;26.08;;;14.65;;
30970;SDS011;17651;52.262;10.498;2024-03-02T00:41:59;24.15;;;15.27;;
30970;SDS011;17651;52.262;10.498;2024-03-02T00:44:11;22.63;;;13.88;;
30970;SDS011;17651;52.262;10.498;2024-03-02T00:46:23;22.90;;;13.13;;
30970;SDS011;17651;52.262;10.498;2024-03-02T00:48:34;23.92;;;13.43;;
30970;SDS011;17651;52.262;10.498;2024-03-02T00:50:52;24.15;;;14.27;;
30970;SDS011;17651;52.262;10.498;2024-03-02T00:53:03;24.88;;;13.98;;
30970;SDS011;17651;52.262;10.498;2024-03-02T00:55:14;27.10;;;15.07;;
30970;SDS011;17651;52.262;10.498;2024-03-02T00:57:33;25.08;;;14.70;;
30970;SDS011;17651;52.262;10.498;2024-03-02T00:59:44;27.42;;;14.65;;
30970;SDS011;17651;52.262;10.498;2024-03-02T01:01:56;23.23;;;13.82;;
30970;SDS011;17651;52.262;10.498;2024-03-02T01:04:07;23.02;;;13.70;;
30970;SDS011;17651;52.262;10.498;2024-03-02T01:06:18;23.17;;;14.10;;
30970;SDS011;17651;52.262;10.498;2024-03-02T01:08:29;29.92;;;15.30;;
30970;SDS011;17651;52.262;10.498;2024-03-02T01:10:40;26.38;;;14.65;;
30970;SDS011;17651;52.262;10.498;2024-03-02T01:12:51;24.50;;;14.30;;
30970;SDS011;17651;52.262;10.498;2024-03-02T01:15:03;24.60;;;14.20;;
30970;SDS011;17651;52.262;10.498;2024-03-02T01:17:16;26.63;;;15.13;;
30970;SDS011;17651;52.262;10.498;2024-03-02T01:19:27;27.80;;;15.50;;
30970;SDS011;17651;52.262;10.498;2024-03-02T01:21:38;25.65;;;14.27;;
30970;SDS011;17651;52.262;10.498;2024-03-02T01:23:49;26.85;;;15.00;;
30970;SDS011;17651;52.262;10.498;2024-03-02T01:26:00;25.35;;;14.45;;
30970;SDS011;17651;52.262;10.498;2024-03-02T01:28:11;26.20;;;15.00;;
30970;SDS011;17651;52.262;10.498;2024-03-02T01:30:23;25.92;;;15.43;;
30970;SDS011;17651;52.262;10.498;2024-03-02T01:32:34;29.77;;;16.80;;
30970;SDS011;17651;52.262;10.498;2024-03-02T01:34:45;27.95;;;15.48;;
30970;SDS011;17651;52.262;10.498;2024-03-02T01:36:56;28.27;;;17.70;;
30970;SDS011;17651;52.262;10.498;2024-03-02T01:39:07;27.42;;;15.32;;
30970;SDS011;17651;52.262;10.498;2024-03-02T01:41:19;28.13;;;15.93;;
30970;SDS011;17651;52.262;10.498;2024-03-02T01:43:30;29.42;;;16.02;;
30970;SDS011;17651;52.262;10.498;2024-03-02T01:45:41;24.38;;;14.85;;
30970;SDS011;17651;52.262;10.498;2024-03-02T01:47:52;28.80;;;15.77;;
30970;SDS011;17651;52.262;10.498;2024-03-02T01:50:04;29.00;;;15.82;;
30970;SDS011;17651;52.262;10.498;2024-03-02T01:52:15;30.45;;;15.57;;
30970;SDS011;17651;52.262;10.498;2024-03-02T01:54:26;27.73;;;16.48;;
30970;SDS011;17651;52.262;10.498;2024-03-02T01:56:37;29.40;;;16.23;;
30970;SDS011;17651;52.262;10.498;2024-03-02T01:58:48;29.65;;;15.75;;
30970;SDS011;17651;52.262;10.498;2024-03-02T02:00:59;26.08;;;15.95;;
30970;SDS011;17651;52.262;10.498;2024-03-02T02:03:10;28.95;;;15.45;;
30970;SDS011;17651;52.262;10.498;2024-03-02T02:05:21;30.33;;;16.08;;
30970;SDS011;17651;52.262;10.498;2024-03-02T02:07:32;28.95;;;16.38;;
30970;SDS011;17651;52.262;10.498;2024-03-02T02:09:45;27.08;;;16.08;;
30970;SDS011;17651;52.262;10.498;2024-03-02T02:11:56;29.88;;;16.83;;
30970;SDS011;17651;52.262;10.498;2024-03-02T02:14:07;29.67;;;16.10;;
30970;SDS011;17651;52.262;10.498;2024-03-02T02:16:18;29.23;;;16.65;;
30970;SDS011;17651;52.262;10.498;2024-03-02T02:18:29;29.08;;;16.15;;
30970;SDS011;17651;52.262;10.498;2024-03-02T02:20:40;27.63;;;16.52;;
30970;SDS011;17651;52.262;10.498;2024-03-02T02:25:05;31.95;;;16.58;;
30970;SDS011;17651;52.262;10.498;2024-03-02T02:27:16;29.85;;;17.15;;
30970;SDS011;17651;52.262;10.498;2024-03-02T02:29:27;29.05;;;16.70;;
30970;SDS011;17651;52.262;10.498;2024-03-02T02:31:39;30.83;;;17.20;;
30970;SDS011;17651;52.262;10.498;2024-03-02T02:33:50;32.38;;;16.77;;
30970;SDS011;17651;52.262;10.498;2024-03-02T02:36:01;29.73;;;16.67;;
30970;SDS011;17651;52.262;10.498;2024-03-02T02:38:13;29.30;;;16.75;;
30970;SDS011;17651;52.262;10.498;2024-03-02T02:40:24;31.48;;;17.98;;
30970;SDS011;17651;52.262;10.498;2024-03-02T02:42:35;29.45;;;17.45;;
30970;SDS011;17651;52.262;10.498;2024-03-02T02:44:46;30.17;;;17.40;;
30970;SDS011;17651;52.262;10.498;2024-03-02T02:46:57;29.40;;;16.92;;
30970;SDS011;17651;52.262;10.498;2024-03-02T02:49:08;28.73;;;16.65;;
30970;SDS011;17651;52.262;10.498;2024-03-02T02:51:19;32.00;;;17.23;;
30970;SDS011;17651;52.262;10.498;2024-03-02T02:53:30;33.58;;;17.45;;
30970;SDS011;17651;52.262;10.498;2024-03-02T02:55:41;35.08;;;19.00;;
30970;SDS011;17651;52.262;10.498;2024-03-02T02:57:53;34.95;;;19.08;;
30970;SDS011;17651;52.262;10.498;2024-03-02T03:00:04;39.08;;;18.50;;
30970;SDS011;17651;52.262;10.498;2024-03-02T03:02:20;31.08;;;17.60;;
30970;SDS011;17651;52.262;10.498;2024-03-02T03:04:31;28.85;;;17.60;;
30970;SDS011;17651;52.262;10.498;2024-03-02T03:06:42;31.42;;;18.05;;
30970;SDS011;17651;52.262;10.498;2024-03-02T03:08:53;30.83;;;17.77;;
30970;SDS011;17651;52.262;10.498;2024-03-02T03:11:04;30.25;;;17.80;;
30970;SDS011;17651;52.262;10.498;2024-03-02T03:13:15;30.27;;;17.48;;
30970;SDS011;17651;52.262;10.498;2024-03-02T03:15:26;31.38;;;17.85;;
30970;SDS011;17651;52.262;10.498;2024-03-02T03:17:37;35.63;;;19.05;;
30970;SDS011;17651;52.262;10.498;2024-03-02T03:19:49;29.83;;;18.10;;
30970;SDS011;17651;52.262;10.498;2024-03-02T03:22:00;32.60;;;17.95;;
30970;SDS011;17651;52.262;10.498;2024-03-02T03:24:11;28.38;;;17.58;;
30970;SDS011;17651;52.262;10.498;2024-03-02T03:26:22;36.42;;;18.75;;
30970;SDS011;17651;52.262;10.498;2024-03-02T03:28:34;31.38;;;17.77;;
30970;SDS011;17651;52.262;10.498;2024-03-02T03:30:45;31.20;;;18.33;;
30970;SDS011;17651;52.262;10.498;2024-03-02T03:32:56;33.35;;;17.52;;
30970;SDS011;17651;52.262;10.498;2024-03-02T03:35:07;27.10;;;16.75;;
30970;SDS011;17651;52.262;10.498;2024-03-02T03:37:18;33.90;;;18.20;;
30970;SDS011;17651;52.262;10.498;2024-03-02T03:39:30;30.65;;;18.05;;
30970;SDS011;17651;52.262;10.498;2024-03-02T03:41:41;30.67;;;17.00;;
30970;SDS011;17651;52.262;10.498;2024-03-02T03:43:52;28.45;;;16.45;;
30970;SDS011;17651;52.262;10.498;2024-03-02T03:46:03;32.00;;;17.63;;
30970;SDS011;17651;52.262;10.498;2024-03-02T03:48:14;28.42;;;16.48;;
30970;SDS011;17651;52.262;10.498;2024-03-02T03:50:25;30.70;;;17.13;;
30970;SDS011;17651;52.262;10.498;2024-03-02T03:52:36;29.13;;;16.17;;
30970;SDS011;17651;52.262;10.498;2024-03-02T03:54:47;27.70;;;16.55;;
30970;SDS011;17651;52.262;10.498;2024-03-02T03:56:58;31.75;;;15.95;;
30970;SDS011;17651;52.262;10.498;2024-03-02T03:59:09;27.73;;;16.58;;
30970;SDS011;17651;52.262;10.498;2024-03-02T04:01:20;26.83;;;15.57;;
30970;SDS011;17651;52.262;10.498;2024-03-02T04:03:32;27.45;;;16.20;;
30970;SDS011;17651;52.262;10.498;2024-03-02T04:05:43;28.30;;;16.55;;
30970;SDS011;17651;52.262;10.498;2024-03-02T04:07:54;32.08;;;17.88;;
30970;SDS011;17651;52.262;10.498;2024-03-02T04:10:09;28.13;;;16.42;;
30970;SDS011;17651;52.262;10.498;2024-03-02T04:12:20;26.65;;;15.18;;
30970;SDS011;17651;52.262;10.498;2024-03-02T04:14:32;28.40;;;16.35;;
30970;SDS011;17651;52.262;10.498;2024-03-02T04:16:43;30.40;;;17.35;;
30970;SDS011;17651;52.262;10.498;2024-03-02T04:18:54;24.40;;;15.43;;
30970;SDS011;17651;52.262;10.498;2024-03-02T04:21:05;25.98;;;15.65;;
30970;SDS011;17651;52.262;10.498;2024-03-02T04:23:16;30.67;;;16.55;;
30970;SDS011;17651;52.262;10.498;2024-03-02T04:25:27;26.98;;;16.77;;
30970;SDS011;17651;52.262;10.498;2024-03-02T04:27:38;29.23;;;18.10;;
30970;SDS011;17651;52.262;10.498;2024-03-02T04:29:49;29.90;;;16.77;;
30970;SDS011;17651;52.262;10.498;2024-03-02T04:32:01;28.73;;;16.15;;
30970;SDS011;17651;52.262;10.498;2024-03-02T04:34:12;34.15;;;17.95;;
30970;SDS011;17651;52.262;10.498;2024-03-02T04:36:23;29.25;;;16.15;;
30970;SDS011;17651;52.262;10.498;2024-03-02T04:38:34;28.75;;;16.60;;
30970;SDS011;17651;52.262;10.498;2024-03-02T04:40:45;31.67;;;17.08;;
30970;SDS011;17651;52.262;10.498;2024-03-02T04:42:56;29.52;;;16.88;;
30970;SDS011;17651;52.262;10.498;2024-03-02T04:45:08;28.70;;;16.77;;
30970;SDS011;17651;52.262;10.498;2024-03-02T04:47:19;28.98;;;17.02;;
30970;SDS011;17651;52.262;10.498;2024-03-02T04:49:30;26.52;;;14.80;;
30970;SDS011;17651;52.262;10.498;2024-03-02T04:51:42;27.63;;;16.30;;
30970;SDS011;17651;52.262;10.498;2024-03-02T04:53:53;28.42;;;16.10;;
30970;SDS011;17651;52.262;10.498;2024-03-02T04:56:04;27.52;;;16.27;;
30970;SDS011;17651;52.262;10.498;2024-03-02T04:58:33;28.90;;;16.95;;
30970;SDS011;17651;52.262;10.498;2024-03-02T05:00:44;27.25;;;15.77;;
30970;SDS011;17651;52.262;10.498;2024-03-02T05:02:56;28.92;;;17.00;;
30970;SDS011;17651;52.262;10.498;2024-03-02T05:05:08;26.60;;;15.35;;
30970;SDS011;17651;52.262;10.498;2024-03-02T05:07:19;30.50;;;16.90;;
30970;SDS011;17651;52.262;10.498;2024-03-02T05:09:30;27.73;;;16.95;;
30970;SDS011;17651;52.262;10.498;2024-03-02T05:11:41;32.88;;;18.35;;
30970;SDS011;17651;52.262;10.498;2024-03-02T05:14:06;30.25;;;16.80;;
30970;SDS011;17651;52.262;10.498;2024-03-02T05:16:18;27.42;;;16.35;;
30970;SDS011;17651;52.262;10.498;2024-03-02T05:18:29;32.35;;;18.33;;
30970;SDS011;17651;52.262;10.498;2024-03-02T05:20:40;31.08;;;17.17;;
30970;SDS011;17651;52.262;10.498;2024-03-02T05:22:51;27.13;;;17.08;;
30970;SDS011;17651;52.262;10.498;2024-03-02T05:25:02;32.58;;;17.95;;
30970;SDS011;17651;52.262;10.498;2024-03-02T05:27:14;32.00;;;18.88;;
30970;SDS011;17651;52.262;10.498;2024-03-02T05:29:25;26.55;;;17.15;;
30970;SDS011;17651;52.262;10.498;2024-03-02T05:31:36;32.22;;;17.70;;
30970;SDS011;17651;52.262;10.498;2024-03-02T05:33:47;30.13;;;17.23;;
30970;SDS011;17651;52.262;10.498;2024-03-02T05:35:58;27.13;;;17.33;;
30970;SDS011;17651;52.262;10.498;2024-03-02T05:38:09;29.83;;;18.27;;
30970;SDS011;17651;52.262;10.498;2024-03-02T05:40:20;31.70;;;19.23;;
30970;SDS011;17651;52.262;10.498;2024-03-02T05:42:31;30.75;;;18.95;;
30970;SDS011;17651;52.262;10.498;2024-03-02T05:44:42;31.77;;;18.27;;
30970;SDS011;17651;52.262;10.498;2024-03-02T05:46:53;30.30;;;18.80;;
30970;SDS011;17651;52.262;10.498;2024-03-02T05:49:04;33.60;;;20.02;;
30970;SDS011;17651;52.262;10.498;2024-03-02T05:51:17;31.60;;;17.52;;
30970;SDS011;17651;52.262;10.498;2024-03-02T05:53:28;32.53;;;19.15;;
30970;SDS011;17651;52.262;10.498;2024-03-02T05:55:40;30.45;;;18.33;;
30970;SDS011;17651;52.262;10.498;2024-03-02T05:57:51;28.77;;;18.55;;
30970;SDS011;17651;52.262;10.498;2024-03-02T06:00:08;30.83;;;18.50;;
30970;SDS011;17651;52.262;10.498;2024-03-02T06:02:22;30.33;;;18.52;;
30970;SDS011;17651;52.262;10.498;2024-03-02T06:04:33;35.35;;;19.08;;
30970;SDS011;17651;52.262;10.498;2024-03-02T06:06:44;35.65;;;20.17;;
30970;SDS011;17651;52.262;10.498;2024-03-02T06:08:56;37.28;;;19.05;;
30970;SDS011;17651;52.262;10.498;2024-03-02T06:11:07;33.33;;;20.75;;
30970;SDS011;17651;52.262;10.498;2024-03-02T06:13:18;34.22;;;19.98;;
30970;SDS011;17651;52.262;10.498;2024-03-02T06:15:29;32.92;;;19.23;;
30970;SDS011;17651;52.262;10.498;2024-03-02T06:17:40;32.03;;;20.27;;
30970;SDS011;17651;52.262;10.498;2024-03-02T06:19:51;38.83;;;19.95;;
30970;SDS011;17651;52.262;10.498;2024-03-02T06:22:02;32.65;;;19.35;;
30970;SDS011;17651;52.262;10.498;2024-03-02T06:24:14;32.35;;;19.08;;
30970;SDS011;17651;52.262;10.498;2024-03-02T06:26:25;32.38;;;19.05;;
30970;SDS011;17651;52.262;10.498;2024-03-02T06:28:36;36.40;;;20.88;;
30970;SDS011;17651;52.262;10.498;2024-03-02T06:30:47;33.72;;;18.98;;
30970;SDS011;17651;52.262;10.498;2024-03-02T06:32:58;33.38;;;19.83;;
30970;SDS011;17651;52.262;10.498;2024-03-02T06:35:09;34.25;;;19.30;;
30970;SDS011;17651;52.262;10.498;2024-03-02T06:37:20;33.70;;;19.67;;
30970;SDS011;17651;52.262;10.498;2024-03-02T06:39:31;34.78;;;19.20;;
30970;SDS011;17651;52.262;10.498;2024-03-02T06:41:44;31.08;;;18.48;;
30970;SDS011;17651;52.262;10.498;2024-03-02T06:43:57;32.28;;;18.98;;
30970;SDS011;17651;52.262;10.498;2024-03-02T06:46:09;32.13;;;18.88;;
30970;SDS011;17651;52.262;10.498;2024-03-02T06:48:24;35.97;;;18.88;;
30970;SDS011;17651;52.262;10.498;2024-03-02T06:50:35;35.45;;;20.40;;
30970;SDS011;17651;52.262;10.498;2024-03-02T06:52:46;37.13;;;21.65;;
30970;SDS011;17651;52.262;10.498;2024-03-02T06:54:57;37.35;;;19.90;;
30970;SDS011;17651;52.262;10.498;2024-03-02T06:57:08;34.03;;;19.25;;
30970;SDS011;17651;52.262;10.498;2024-03-02T06:59:20;35.25;;;20.25;;
30970;SDS011;17651;52.262;10.498;2024-03-02T07:01:31;37.95;;;20.30;;
30970;SDS011;17651;52.262;10.498;2024-03-02T07:03:42;34.35;;;20.15;;
30970;SDS011;17651;52.262;10.498;2024-03-02T07:05:54;35.25;;;19.15;;
30970;SDS011;17651;52.262;10.498;2024-03-02T07:08:05;33.78;;;19.52;;
30970;SDS011;17651;52.262;10.498;2024-03-02T07:10:16;34.75;;;19.90;;
30970;SDS011;17651;52.262;10.498;2024-03-02T07:12:27;38.17;;;21.95;;
30970;SDS011;17651;52.262;10.498;2024-03-02T07:14:38;34.53;;;19.20;;
30970;SDS011;17651;52.262;10.498;2024-03-02T07:19:20;37.58;;;19.92;;
30970;SDS011;17651;52.262;10.498;2024-03-02T07:21:31;36.40;;;20.85;;
30970;SDS011;17651;52.262;10.498;2024-03-02T07:23:43;30.83;;;18.60;;
30970;SDS011;17651;52.262;10.498;2024-03-02T07:25:54;35.55;;;19.88;;
30970;SDS011;17651;52.262;10.498;2024-03-02T07:28:06;34.50;;;19.88;;
30970;SDS011;17651;52.262;10.498;2024-03-02T07:30:17;36.72;;;20.80;;
30970;SDS011;17651;52.262;10.498;2024-03-02T07:32:31;32.65;;;19.02;;
30970;SDS011;17651;52.262;10.498;2024-03-02T07:34:42;31.30;;;19.00;;
30970;SDS011;17651;52.262;10.498;2024-03-02T07:36:53;38.25;;;20.08;;
30970;SDS011;17651;52.262;10.498;2024-03-02T07:39:05;35.75;;;19.33;;
30970;SDS011;17651;52.262;10.498;2024-03-02T07:41:17;36.97;;;19.10;;
30970;SDS011;17651;52.262;10.498;2024-03-02T07:43:28;35.58;;;20.65;;
30970;SDS011;17651;52.262;10.498;2024-03-02T07:45:40;34.78;;;19.58;;
30970;SDS011;17651;52.262;10.498;2024-03-02T07:47:51;37.50;;;20.77;;
30970;SDS011;17651;52.262;10.498;2024-03-02T07:50:02;35.33;;;20.08;;
30970;SDS011;17651;52.262;10.498;2024-03-02T07:52:16;37.88;;;21.75;;
30970;SDS011;17651;52.262;10.498;2024-03-02T07:54:27;37.58;;;20.80;;
30970;SDS011;17651;52.262;10.498;2024-03-02T07:56:38;34.10;;;19.77;;
30970;SDS011;17651;52.262;10.498;2024-03-02T07:58:49;32.30;;;18.95;;
30970;SDS011;17651;52.262;10.498;2024-03-02T08:01:00;34.72;;;21.10;;
30970;SDS011;17651;52.262;10.498;2024-03-02T08:03:11;32.35;;;20.33;;
30970;SDS011;17651;52.262;10.498;2024-03-02T08:05:23;37.75;;;20.58;;
30970;SDS011;17651;52.262;10.498;2024-03-02T08:07:34;39.60;;;21.17;;
30970;SDS011;17651;52.262;10.498;2024-03-02T08:09:45;34.25;;;19.73;;
30970;SDS011;17651;52.262;10.498;2024-03-02T08:11:56;39.45;;;22.00;;
30970;SDS011;17651;52.262;10.498;2024-03-02T08:14:08;34.78;;;19.67;;
30970;SDS011;17651;52.262;10.498;2024-03-02T08:16:19;40.33;;;20.38;;
30970;SDS011;17651;52.262;10.498;2024-03-02T08:18:30;34.13;;;19.52;;
30970;SDS011;17651;52.262;10.498;2024-03-02T08:20:41;33.40;;;19.77;;
30970;SDS011;17651;52.262;10.498;2024-03-02T08:22:52;41.22;;;20.35;;
30970;SDS011;17651;52.262;10.498;2024-03-02T08:25:05;36.35;;;20.55;;
30970;SDS011;17651;52.262;10.498;2024-03-02T08:27:16;37.20;;;21.08;;
30970;SDS011;17651;52.262;10.498;2024-03-02T08:29:27;38.90;;;19.95;;
30970;SDS011;17651;52.262;10.498;2024-03-02T08:31:38;39.15;;;21.35;;
30970;SDS011;17651;52.262;10.498;2024-03-02T08:33:49;36.60;;;20.38;;
30970;SDS011;17651;52.262;10.498;2024-03-02T08:36:00;39.10;;;21.52;;
30970;SDS011;17651;52.262;10.498;2024-03-02T08:38:12;38.47;;;20.27;;
30970;SDS011;17651;52.262;10.498;2024-03-02T08:40:23;40.30;;;20.23;;
30970;SDS011;17651;52.262;10.498;2024-03-02T08:42:35;37.72;;;21.63;;
30970;SDS011;17651;52.262;10.498;2024-03-02T08:44:46;33.15;;;21.42;;
30970;SDS011;17651;52.262;10.498;2024-03-02T08:46:57;38.72;;;20.52;;
30970;SDS011;17651;52.262;10.498;2024-03-02T08:49:08;38.20;;;20.27;;
30970;SDS011;17651;52.262;10.498;2024-03-02T08:51:19;38.42;;;20.35;;
30970;SDS011;17651;52.262;10.498;2024-03-02T08:53:30;34.75;;;20.65;;
30970;SDS011;17651;52.262;10.498;2024-03-02T08:55:41;33.80;;;20.02;;
30970;SDS011;17651;52.262;10.498;2024-03-02T08:57:52;35.88;;;20.15;;
30970;SDS011;17651;52.262;10.498;2024-03-02T09:00:04;42.65;;;21.13;;
30970;SDS011;17651;52.262;10.498;2024-03-02T09:02:18;36.13;;;19.95;;
30970;SDS011;17651;52.262;10.498;2024-03-02T09:04:29;38.50;;;20.85;;
30970;SDS011;17651;52.262;10.498;2024-03-02T09:06:40;33.50;;;19.92;;
30970;SDS011;17651;52.262;10.498;2024-03-02T09:08:51;33.30;;;19.50;;
30970;SDS011;17651;52.262;10.498;2024-03-02T09:11:03;37.53;;;19.98;;
30970;SDS011;17651;52.262;10.498;2024-03-02T09:13:14;35.58;;;19.67;;
30970;SDS011;17651;52.262;10.498;2024-03-02T09:15:25;37.00;;;20.75;;
30970;SDS011;17651;52.262;10.498;2024-03-02T09:17:36;33.35;;;19.35;;
30970;SDS011;17651;52.262;10.498;2024-03-02T09:19:47;36.95;;;21.23;;
30970;SDS011;17651;52.262;10.498;2024-03-02T09:22:01;38.75;;;21.95;;
30970;SDS011;17651;52.262;10.498;2024-03-02T09:24:13;34.03;;;20.38;;
30970;SDS011;17651;52.262;10.498;2024-03-02T09:26:24;33.05;;;18.80;;
30970;SDS011;17651;52.262;10.498;2024-03-02T09:28:36;35.85;;;21.35;;
30970;SDS011;17651;52.262;10.498;2024-03-02T09:30:47;33.70;;;20.05;;
30970;SDS011;17651;52.262;10.498;2024-03-02T09:32:58;33.30;;;19.02;;
30970;SDS011;17651;52.262;10.498;2024-03-02T09:35:09;34.03;;;20.13;;
30970;SDS011;17651;52.262;10.498;2024-03-02T09:37:22;32.83;;;18.02;;
30970;SDS011;17651;52.262;10.498;2024-03-02T09:39:33;38.00;;;19.67;;
30970;SDS011;17651;52.262;10.498;2024-03-02T09:41:44;34.17;;;19.20;;
30970;SDS011;17651;52.262;10.498;2024-03-02T09:43:56;32.50;;;18.92;;
30970;SDS011;17651;52.262;10.498;2024-03-02T09:46:11;35.40;;;19.67;;
30970;SDS011;17651;52.262;10.498;2024-03-02T09:48:22;37.85;;;18.85;;
30970;SDS011;17651;52.262;10.498;2024-03-02T09:50:33;35.70;;;19.90;;
30970;SDS011;17651;52.262;10.498;2024-03-02T09:52:47;30.98;;;17.83;;
30970;SDS011;17651;52.262;10.498;2024-03-02T09:54:58;30.95;;;19.20;;
30970;SDS011;17651;52.262;10.498;2024-03-02T09:57:09;31.98;;;18.67;;
30970;SDS011;17651;52.262;10.498;2024-03-02T09:59:21;29.55;;;18.10;;
30970;SDS011;17651;52.262;10.498;2024-03-02T10:01:32;34.08;;;17.77;;
30970;SDS011;17651;52.262;10.498;2024-03-02T10:03:44;30.35;;;17.73;;
30970;SDS011;17651;52.262;10.498;2024-03-02T10:05:56;30.40;;;19.65;;
30970;SDS011;17651;52.262;10.498;2024-03-02T10:08:07;28.05;;;17.10;;
30970;SDS011;17651;52.262;10.498;2024-03-02T10:10:18;29.90;;;16.33;;
30970;SDS011;17651;52.262;10.498;2024-03-02T10:12:29;30.95;;;17.35;;
30970;SDS011;17651;52.262;10.498;2024-03-02T10:14:40;30.02;;;17.60;;
30970;SDS011;17651;52.262;10.498;2024-03-02T10:16:51;34.38;;;17.35;;
30970;SDS011;17651;52.262;10.498;2024-03-02T10:19:22;29.80;;;16.38;;
30970;SDS011;17651;52.262;10.498;2024-03-02T10:21:34;26.50;;;16.13;;
30970;SDS011;17651;52.262;10.498;2024-03-02T10:23:45;26.88;;;16.23;;
30970;SDS011;17651;52.262;10.498;2024-03-02T10:25:56;29.42;;;16.63;;
30970;SDS011;17651;52.262;10.498;2024-03-02T10:28:07;28.50;;;16.67;;
30970;SDS011;17651;52.262;10.498;2024-03-02T10:30:18;33.83;;;16.92;;
30970;SDS011;17651;52.262;10.498;2024-03-02T10:32:29;28.38;;;16.58;;
30970;SDS011;17651;52.262;10.498;2024-03-02T10:34:40;27.52;;;15.52;;
30970;SDS011;17651;52.262;10.498;2024-03-02T10:36:52;27.77;;;15.98;;
30970;SDS011;17651;52.262;10.498;2024-03-02T10:39:04;31.02;;;16.15;;
30970;SDS011;17651;52.262;10.498;2024-03-02T10:41:18;28.42;;;17.05;;
30970;SDS011;17651;52.262;10.498;2024-03-02T10:43:29;27.05;;;16.08;;
30970;SDS011;17651;52.262;10.498;2024-03-02T10:45:41;25.67;;;15.35;;
30970;SDS011;17651;52.262;10.498;2024-03-02T10:47:52;21.95;;;13.68;;
30970;SDS011;17651;52.262;10.498;2024-03-02T10:50:06;22.63;;;12.90;;
30970;SDS011;17651;52.262;10.498;2024-03-02T10:52:18;25.05;;;14.15;;
30970;SDS011;17651;52.262;10.498;2024-03-02T10:54:29;25.40;;;14.85;;
30970;SDS011;17651;52.262;10.498;2024-03-02T10:56:46;25.75;;;14.75;;
30970;SDS011;17651;52.262;10.498;2024-03-02T10:59:06;29.27;;;15.25;;
30970;SDS011;17651;52.262;10.498;2024-03-02T11:01:20;24.83;;;14.52;;
30970;SDS011;17651;52.262;10.498;2024-03-02T11:03:35;26.38;;;14.45;;
30970;SDS011;17651;52.262;10.498;2024-03-02T11:05:49;27.48;;;14.15;;
30970;SDS011;17651;52.262;10.498;2024-03-02T11:08:02;27.27;;;13.93;;
30970;SDS011;17651;52.262;10.498;2024-03-02T11:10:13;24.00;;;13.63;;
30970;SDS011;17651;52.262;10.498;2024-03-02T11:12:29;26.50;;;14.88;;
30970;SDS011;17651;52.262;10.498;2024-03-02T11:14:40;27.25;;;13.98;;
30970;SDS011;17651;52.262;10.498;2024-03-02T11:16:55;23.17;;;13.93;;
30970;SDS011;17651;52.262;10.498;2024-03-02T11:19:06;27.33;;;15.52;;
30970;SDS011;17651;52.262;10.498;2024-03-02T11:21:19;27.40;;;14.77;;
30970;SDS011;17651;52.262;10.498;2024-03-02T11:23:31;23.10;;;14.00;;
30970;SDS011;17651;52.262;10.498;2024-03-02T11:25:43;24.08;;;13.95;;
30970;SDS011;17651;52.262;10.498;2024-03-02T11:30:05;22.60;;;13.57;;
30970;SDS011;17651;52.262;10.498;2024-03-02T11:32:20;20.40;;;12.73;;
30970;SDS011;17651;52.262;10.498;2024-03-02T11:34:33;24.70;;;12.88;;
30970;SDS011;17651;52.262;10.498;2024-03-02T11:36:45;24.27;;;13.30;;
30970;SDS011;17651;52.262;10.498;2024-03-02T11:38:57;25.45;;;14.02;;
30970;SDS011;17651;52.262;10.498;2024-03-02T11:41:08;24.20;;;13.73;;
30970;SDS011;17651;52.262;10.498;2024-03-02T11:43:20;21.90;;;13.57;;
30970;SDS011;17651;52.262;10.498;2024-03-02T11:45:31;25.38;;;14.23;;
30970;SDS011;17651;52.262;10.498;2024-03-02T11:47:49;20.52;;;13.07;;
30970;SDS011;17651;52.262;10.498;2024-03-02T11:50:00;19.58;;;13.23;;
30970;SDS011;17651;52.262;10.498;2024-03-02T11:52:12;22.55;;;13.45;;
30970;SDS011;17651;52.262;10.498;2024-03-02T11:54:25;27.20;;;13.95;;
30970;SDS011;17651;52.262;10.498;2024-03-02T11:56:36;24.77;;;13.73;;
30970;SDS011;17651;52.262;10.498;2024-03-02T11:58:47;22.42;;;13.13;;
30970;SDS011;17651;52.262;10.498;2024-03-02T12:01:00;22.58;;;13.50;;
30970;SDS011;17651;52.262;10.498;2024-03-02T12:03:13;23.27;;;13.77;;
30970;SDS011;17651;52.262;10.498;2024-03-02T12:05:26;24.13;;;14.18;;
30970;SDS011;17651;52.262;10.498;2024-03-02T12:07:37;21.60;;;13.43;;
30970;SDS011;17651;52.262;10.498;2024-03-02T12:09:49;27.38;;;14.15;;
30970;SDS011;17651;52.262;10.498;2024-03-02T12:12:09;21.92;;;13.60;;
30970;SDS011;17651;52.262;10.498;2024-03-02T12:14:21;22.17;;;13.68;;
30970;SDS011;17651;52.262;10.498;2024-03-02T12:16:32;19.80;;;12.77;;
30970;SDS011;17651;52.262;10.498;2024-03-02T12:18:43;22.67;;;14.10;;
30970;SDS011;17651;52.262;10.498;2024-03-02T12:20:54;19.13;;;11.15;;
30970;SDS011;17651;52.262;10.498;2024-03-02T12:23:09;20.85;;;12.40;;
30970;SDS011;17651;52.262;10.498;2024-03-02T12:25:20;21.00;;;11.93;;
30970;SDS011;17651;52.262;10.498;2024-03-02T12:27:32;20.20;;;11.05;;
30970;SDS011;17651;52.262;10.498;2024-03-02T12:29:43;18.48;;;11.52;;
30970;SDS011;17651;52.262;10.498;2024-03-02T12:31:54;17.48;;;11.23;;
30970;SDS011;17651;52.262;10.498;2024-03-02T12:34:05;18.05;;;12.15;;
30970;SDS011;17651;52.262;10.498;2024-03-02T12:36:17;18.60;;;10.98;;
30970;SDS011;17651;52.262;10.498;2024-03-02T12:38:28;21.90;;;11.40;;
30970;SDS011;17651;52.262;10.498;2024-03-02T12:40:39;16.40;;;10.00;;
30970;SDS011;17651;52.262;10.498;2024-03-02T12:42:51;19.83;;;11.68;;
30970;SDS011;17651;52.262;10.498;2024-03-02T12:45:02;17.00;;;10.40;;
30970;SDS011;17651;52.262;10.498;2024-03-02T12:47:13;18.85;;;10.82;;
30970;SDS011;17651;52.262;10.498;2024-03-02T12:49:25;16.52;;;9.95;;